sensor_id;sensor_type;location;lat;lon;timestamp;temperature;humidity
25300;DHT22;13241;51.208;4.432;2023-04-03T00:00:41;5.00;99.90
25300;DHT22;13241;51.208;4.432;2023-04-03T00:03:08;5.00;99.90
25300;DHT22;13241;51.208;4.432;2023-04-03T00:05:35;5.00;99.90
25300;DHT22;13241;51.208;4.432;2023-04-03T00:08:03;5.00;99.90
25300;DHT22;13241;51.208;4.432;2023-04-03T00:10:31;5.00;99.90
25300;DHT22;13241;51.208;4.432;2023-04-03T00:12:57;4.90;99.90
25300;DHT22;13241;51.208;4.432;2023-04-03T00:15:24;4.90;99.90
25300;DHT22;13241;51.208;4.432;2023-04-03T00:17:51;4.90;99.90
25300;DHT22;13241;51.208;4.432;2023-04-03T00:20:18;4.90;99.90
25300;DHT22;13241;51.208;4.432;2023-04-03T00:22:45;4.80;99.90
25300;DHT22;13241;51.208;4.432;2023-04-03T00:25:12;4.80;99.90
25300;DHT22;13241;51.208;4.432;2023-04-03T00:27:39;4.80;99.90
25300;DHT22;13241;51.208;4.432;2023-04-03T00:30:08;4.80;99.90
25300;DHT22;13241;51.208;4.432;2023-04-03T00:32:37;4.70;99.90
25300;DHT22;13241;51.208;4.432;2023-04-03T00:35:05;4.70;99.90
25300;DHT22;13241;51.208;4.432;2023-04-03T00:37:32;4.70;99.90
25300;DHT22;13241;51.208;4.432;2023-04-03T00:39:59;4.80;99.90
25300;DHT22;13241;51.208;4.432;2023-04-03T00:42:26;4.80;99.90
25300;DHT22;13241;51.208;4.432;2023-04-03T00:47:24;4.70;99.90
25300;DHT22;13241;51.208;4.432;2023-04-03T00:49:52;4.70;99.90
25300;DHT22;13241;51.208;4.432;2023-04-03T00:52:22;4.70;99.90
25300;DHT22;13241;51.208;4.432;2023-04-03T00:54:52;4.60;99.90
25300;DHT22;13241;51.208;4.432;2023-04-03T00:57:21;4.70;99.90
25300;DHT22;13241;51.208;4.432;2023-04-03T00:59:52;4.60;99.90
25300;DHT22;13241;51.208;4.432;2023-04-03T01:02:21;4.60;99.90
25300;DHT22;13241;51.208;4.432;2023-04-03T01:04:49;4.60;99.90
25300;DHT22;13241;51.208;4.432;2023-04-03T01:07:22;4.60;99.90
25300;DHT22;13241;51.208;4.432;2023-04-03T01:09:53;4.50;99.90
25300;DHT22;13241;51.208;4.432;2023-04-03T01:12:31;4.50;99.90
25300;DHT22;13241;51.208;4.432;2023-04-03T01:25:17;4.60;99.90
25300;DHT22;13241;51.208;4.432;2023-04-03T01:27:44;4.50;99.90
25300;DHT22;13241;51.208;4.432;2023-04-03T01:30:13;4.50;99.90
25300;DHT22;13241;51.208;4.432;2023-04-03T01:32:42;4.50;99.90
25300;DHT22;13241;51.208;4.432;2023-04-03T01:35:12;4.50;99.90
25300;DHT22;13241;51.208;4.432;2023-04-03T01:37:39;4.50;99.90
25300;DHT22;13241;51.208;4.432;2023-04-03T01:40:07;4.40;99.90
25300;DHT22;13241;51.208;4.432;2023-04-03T01:42:34;4.40;99.90
25300;DHT22;13241;51.208;4.432;2023-04-03T01:45:01;4.40;99.90
25300;DHT22;13241;51.208;4.432;2023-04-03T01:47:28;4.30;99.90
25300;DHT22;13241;51.208;4.432;2023-04-03T01:49:55;4.40;99.90
25300;DHT22;13241;51.208;4.432;2023-04-03T01:52:22;4.30;99.90
25300;DHT22;13241;51.208;4.432;2023-04-03T01:54:50;4.30;99.90
25300;DHT22;13241;51.208;4.432;2023-04-03T01:57:17;4.30;99.90
25300;DHT22;13241;51.208;4.432;2023-04-03T01:59:44;4.30;99.90
25300;DHT22;13241;51.208;4.432;2023-04-03T02:02:11;4.30;99.90
25300;DHT22;13241;51.208;4.432;2023-04-03T02:04:39;4.30;99.90
25300;DHT22;13241;51.208;4.432;2023-04-03T02:07:06;4.40;99.90
25300;DHT22;13241;51.208;4.432;2023-04-03T02:09:33;4.40;99.90
25300;DHT22;13241;51.208;4.432;2023-04-03T02:11:59;4.30;99.90
25300;DHT22;13241;51.208;4.432;2023-04-03T02:14:26;4.30;99.90
25300;DHT22;13241;51.208;4.432;2023-04-03T02:16:54;4.30;99.90
25300;DHT22;13241;51.208;4.432;2023-04-03T02:19:22;4.40;99.90
25300;DHT22;13241;51.208;4.432;2023-04-03T02:21:49;4.50;99.90
25300;DHT22;13241;51.208;4.432;2023-04-03T02:24:16;4.50;99.90
25300;DHT22;13241;51.208;4.432;2023-04-03T02:26:43;4.50;99.90
25300;DHT22;13241;51.208;4.432;2023-04-03T02:29:10;4.50;99.90
25300;DHT22;13241;51.208;4.432;2023-04-03T02:31:37;4.40;99.90
25300;DHT22;13241;51.208;4.432;2023-04-03T02:34:04;4.30;99.90
25300;DHT22;13241;51.208;4.432;2023-04-03T02:36:34;4.20;99.90
25300;DHT22;13241;51.208;4.432;2023-04-03T02:39:04;4.20;99.90
25300;DHT22;13241;51.208;4.432;2023-04-03T02:41:31;4.20;99.90
25300;DHT22;13241;51.208;4.432;2023-04-03T02:44:06;4.20;99.90
25300;DHT22;13241;51.208;4.432;2023-04-03T02:46:33;4.20;99.90
25300;DHT22;13241;51.208;4.432;2023-04-03T02:49:02;4.10;99.90
25300;DHT22;13241;51.208;4.432;2023-04-03T02:51:29;4.10;99.90
25300;DHT22;13241;51.208;4.432;2023-04-03T02:53:56;4.00;99.90
25300;DHT22;13241;51.208;4.432;2023-04-03T02:56:27;4.00;99.90
25300;DHT22;13241;51.208;4.432;2023-04-03T02:58:54;4.00;99.90
25300;DHT22;13241;51.208;4.432;2023-04-03T03:01:22;3.90;99.90
25300;DHT22;13241;51.208;4.432;2023-04-03T03:03:49;3.90;99.90
25300;DHT22;13241;51.208;4.432;2023-04-03T03:06:17;3.90;99.90
25300;DHT22;13241;51.208;4.432;2023-04-03T03:08:44;3.80;99.90
25300;DHT22;13241;51.208;4.432;2023-04-03T03:11:11;3.80;99.90
25300;DHT22;13241;51.208;4.432;2023-04-03T03:13:38;3.80;99.90
25300;DHT22;13241;51.208;4.432;2023-04-03T03:16:06;3.90;99.90
25300;DHT22;13241;51.208;4.432;2023-04-03T03:18:34;3.80;99.90
25300;DHT22;13241;51.208;4.432;2023-04-03T03:21:03;3.80;99.90
25300;DHT22;13241;51.208;4.432;2023-04-03T03:23:31;3.80;99.90
25300;DHT22;13241;51.208;4.432;2023-04-03T03:26:04;3.90;99.90
25300;DHT22;13241;51.208;4.432;2023-04-03T03:28:33;3.80;99.90
25300;DHT22;13241;51.208;4.432;2023-04-03T03:31:02;3.80;99.90
25300;DHT22;13241;51.208;4.432;2023-04-03T03:33:31;3.80;99.90
25300;DHT22;13241;51.208;4.432;2023-04-03T03:35:59;3.70;99.90
25300;DHT22;13241;51.208;4.432;2023-04-03T03:38:26;3.80;99.90
25300;DHT22;13241;51.208;4.432;2023-04-03T03:40:53;3.70;99.90
25300;DHT22;13241;51.208;4.432;2023-04-03T03:43:22;3.70;99.90
25300;DHT22;13241;51.208;4.432;2023-04-03T03:45:52;3.60;99.90
25300;DHT22;13241;51.208;4.432;2023-04-03T03:48:19;3.60;99.90
25300;DHT22;13241;51.208;4.432;2023-04-03T03:50:47;3.60;99.90
25300;DHT22;13241;51.208;4.432;2023-04-03T03:53:14;3.60;99.90
25300;DHT22;13241;51.208;4.432;2023-04-03T03:55:42;3.50;99.90
25300;DHT22;13241;51.208;4.432;2023-04-03T03:58:09;3.50;99.90
25300;DHT22;13241;51.208;4.432;2023-04-03T04:00:36;3.50;99.90
25300;DHT22;13241;51.208;4.432;2023-04-03T04:03:03;3.50;99.90
25300;DHT22;13241;51.208;4.432;2023-04-03T04:05:31;3.50;99.90
25300;DHT22;13241;51.208;4.432;2023-04-03T04:08:00;3.40;99.90
25300;DHT22;13241;51.208;4.432;2023-04-03T04:10:27;3.40;99.90
25300;DHT22;13241;51.208;4.432;2023-04-03T04:12:55;3.40;99.90
25300;DHT22;13241;51.208;4.432;2023-04-03T04:15:26;3.40;99.90
25300;DHT22;13241;51.208;4.432;2023-04-03T04:17:54;3.40;99.90
25300;DHT22;13241;51.208;4.432;2023-04-03T04:20:22;3.30;99.90
25300;DHT22;13241;51.208;4.432;2023-04-03T04:22:49;3.30;99.90
25300;DHT22;13241;51.208;4.432;2023-04-03T04:25:18;3.30;99.90
25300;DHT22;13241;51.208;4.432;2023-04-03T04:27:45;3.30;99.90
25300;DHT22;13241;51.208;4.432;2023-04-03T04:30:14;3.30;99.90
25300;DHT22;13241;51.208;4.432;2023-04-03T04:32:42;3.20;99.90
25300;DHT22;13241;51.208;4.432;2023-04-03T04:35:09;3.30;99.90
25300;DHT22;13241;51.208;4.432;2023-04-03T04:37:40;3.30;99.90
25300;DHT22;13241;51.208;4.432;2023-04-03T04:40:08;3.20;99.90
25300;DHT22;13241;51.208;4.432;2023-04-03T04:42:35;3.20;99.90
25300;DHT22;13241;51.208;4.432;2023-04-03T04:45:02;3.20;99.90
25300;DHT22;13241;51.208;4.432;2023-04-03T04:47:29;3.20;99.90
25300;DHT22;13241;51.208;4.432;2023-04-03T04:49:56;3.20;99.90
25300;DHT22;13241;51.208;4.432;2023-04-03T04:52:23;3.20;99.90
25300;DHT22;13241;51.208;4.432;2023-04-03T04:54:50;3.20;99.90
25300;DHT22;13241;51.208;4.432;2023-04-03T04:57:17;3.20;99.90
25300;DHT22;13241;51.208;4.432;2023-04-03T04:59:45;3.20;99.90
25300;DHT22;13241;51.208;4.432;2023-04-03T05:02:12;3.30;99.90
25300;DHT22;13241;51.208;4.432;2023-04-03T05:04:41;3.30;99.90
25300;DHT22;13241;51.208;4.432;2023-04-03T05:07:14;3.20;99.90
25300;DHT22;13241;51.208;4.432;2023-04-03T05:09:41;3.20;99.90
25300;DHT22;13241;51.208;4.432;2023-04-03T05:12:10;3.20;99.90
25300;DHT22;13241;51.208;4.432;2023-04-03T05:14:43;3.20;99.90
25300;DHT22;13241;51.208;4.432;2023-04-03T05:17:10;3.10;99.90
25300;DHT22;13241;51.208;4.432;2023-04-03T05:19:41;3.10;99.90
25300;DHT22;13241;51.208;4.432;2023-04-03T05:22:10;3.10;99.90
25300;DHT22;13241;51.208;4.432;2023-04-03T05:24:38;3.10;99.90
25300;DHT22;13241;51.208;4.432;2023-04-03T05:27:06;3.10;99.90
25300;DHT22;13241;51.208;4.432;2023-04-03T05:29:37;3.10;99.90
25300;DHT22;13241;51.208;4.432;2023-04-03T05:32:04;3.10;99.90
25300;DHT22;13241;51.208;4.432;2023-04-03T05:34:31;3.10;99.90
25300;DHT22;13241;51.208;4.432;2023-04-03T05:36:59;3.00;99.90
25300;DHT22;13241;51.208;4.432;2023-04-03T05:39:27;3.10;99.90
25300;DHT22;13241;51.208;4.432;2023-04-03T05:41:55;3.10;99.90
25300;DHT22;13241;51.208;4.432;2023-04-03T05:44:22;3.10;99.90
25300;DHT22;13241;51.208;4.432;2023-04-03T05:46:50;3.10;99.90
25300;DHT22;13241;51.208;4.432;2023-04-03T05:49:17;3.20;99.90
25300;DHT22;13241;51.208;4.432;2023-04-03T05:51:45;3.20;99.90
25300;DHT22;13241;51.208;4.432;2023-04-03T05:54:26;3.20;99.90
25300;DHT22;13241;51.208;4.432;2023-04-03T05:57:17;3.20;99.90
25300;DHT22;13241;51.208;4.432;2023-04-03T05:59:45;3.30;99.90
25300;DHT22;13241;51.208;4.432;2023-04-03T06:02:16;3.30;99.90
25300;DHT22;13241;51.208;4.432;2023-04-03T06:04:46;3.30;99.90
25300;DHT22;13241;51.208;4.432;2023-04-03T06:07:17;3.40;99.90
25300;DHT22;13241;51.208;4.432;2023-04-03T06:09:45;3.50;99.90
25300;DHT22;13241;51.208;4.432;2023-04-03T06:12:12;3.40;99.90
25300;DHT22;13241;51.208;4.432;2023-04-03T06:14:39;3.50;99.90
25300;DHT22;13241;51.208;4.432;2023-04-03T06:17:06;3.40;99.90
25300;DHT22;13241;51.208;4.432;2023-04-03T06:19:33;3.50;99.90
25300;DHT22;13241;51.208;4.432;2023-04-03T06:22:00;3.60;99.90
25300;DHT22;13241;51.208;4.432;2023-04-03T06:24:27;3.70;99.90
25300;DHT22;13241;51.208;4.432;2023-04-03T06:26:54;3.70;99.90
25300;DHT22;13241;51.208;4.432;2023-04-03T06:29:21;3.70;99.90
25300;DHT22;13241;51.208;4.432;2023-04-03T06:31:49;3.80;99.90
25300;DHT22;13241;51.208;4.432;2023-04-03T06:34:16;3.80;99.90
25300;DHT22;13241;51.208;4.432;2023-04-03T06:36:44;3.90;99.90
25300;DHT22;13241;51.208;4.432;2023-04-03T06:39:19;4.00;99.90
25300;DHT22;13241;51.208;4.432;2023-04-03T06:41:50;4.10;99.90
25300;DHT22;13241;51.208;4.432;2023-04-03T06:44:25;4.10;99.90
25300;DHT22;13241;51.208;4.432;2023-04-03T06:46:52;4.20;99.90
25300;DHT22;13241;51.208;4.432;2023-04-03T06:49:20;4.10;99.90
25300;DHT22;13241;51.208;4.432;2023-04-03T06:51:48;4.10;99.90
25300;DHT22;13241;51.208;4.432;2023-04-03T06:54:15;4.10;99.90
25300;DHT22;13241;51.208;4.432;2023-04-03T06:56:41;4.10;99.90
25300;DHT22;13241;51.208;4.432;2023-04-03T06:59:10;4.30;99.90
25300;DHT22;13241;51.208;4.432;2023-04-03T07:01:38;4.50;99.90
25300;DHT22;13241;51.208;4.432;2023-04-03T07:04:05;4.60;99.90
25300;DHT22;13241;51.208;4.432;2023-04-03T07:06:32;4.60;99.90
25300;DHT22;13241;51.208;4.432;2023-04-03T07:09:00;4.70;99.90
25300;DHT22;13241;51.208;4.432;2023-04-03T07:11:27;4.80;99.90
25300;DHT22;13241;51.208;4.432;2023-04-03T07:13:54;4.80;99.90
25300;DHT22;13241;51.208;4.432;2023-04-03T07:16:21;4.80;99.90
25300;DHT22;13241;51.208;4.432;2023-04-03T07:18:48;4.90;99.90
25300;DHT22;13241;51.208;4.432;2023-04-03T07:21:15;4.90;99.90
25300;DHT22;13241;51.208;4.432;2023-04-03T07:23:42;4.90;99.90
25300;DHT22;13241;51.208;4.432;2023-04-03T07:26:09;4.90;99.90
25300;DHT22;13241;51.208;4.432;2023-04-03T07:28:36;5.00;99.90
25300;DHT22;13241;51.208;4.432;2023-04-03T07:31:05;5.40;99.90
25300;DHT22;13241;51.208;4.432;2023-04-03T07:33:35;5.60;99.90
25300;DHT22;13241;51.208;4.432;2023-04-03T07:36:04;5.80;99.90
25300;DHT22;13241;51.208;4.432;2023-04-03T07:38:31;5.80;99.90
25300;DHT22;13241;51.208;4.432;2023-04-03T07:40:58;5.80;99.90
25300;DHT22;13241;51.208;4.432;2023-04-03T07:43:25;5.80;99.90
25300;DHT22;13241;51.208;4.432;2023-04-03T07:45:52;5.80;99.90
25300;DHT22;13241;51.208;4.432;2023-04-03T07:48:22;5.80;99.90
25300;DHT22;13241;51.208;4.432;2023-04-03T07:50:50;5.90;99.90
25300;DHT22;13241;51.208;4.432;2023-04-03T07:53:17;6.00;99.90
25300;DHT22;13241;51.208;4.432;2023-04-03T07:55:48;6.10;99.90
25300;DHT22;13241;51.208;4.432;2023-04-03T07:58:17;6.40;99.90
25300;DHT22;13241;51.208;4.432;2023-04-03T08:00:45;6.50;99.90
25300;DHT22;13241;51.208;4.432;2023-04-03T08:03:12;6.70;99.90
25300;DHT22;13241;51.208;4.432;2023-04-03T08:05:44;6.90;99.90
25300;DHT22;13241;51.208;4.432;2023-04-03T08:08:13;7.00;99.90
25300;DHT22;13241;51.208;4.432;2023-04-03T08:10:40;6.90;99.90
25300;DHT22;13241;51.208;4.432;2023-04-03T08:13:08;7.00;99.90
25300;DHT22;13241;51.208;4.432;2023-04-03T08:15:36;7.00;99.90
25300;DHT22;13241;51.208;4.432;2023-04-03T08:18:04;7.00;99.90
25300;DHT22;13241;51.208;4.432;2023-04-03T08:20:30;6.90;99.90
25300;DHT22;13241;51.208;4.432;2023-04-03T08:22:57;6.90;99.90
25300;DHT22;13241;51.208;4.432;2023-04-03T08:25:24;7.00;99.90
25300;DHT22;13241;51.208;4.432;2023-04-03T08:27:51;7.30;99.90
25300;DHT22;13241;51.208;4.432;2023-04-03T08:30:18;7.30;99.90
25300;DHT22;13241;51.208;4.432;2023-04-03T08:32:45;7.30;99.90
25300;DHT22;13241;51.208;4.432;2023-04-03T08:35:12;7.40;99.90
25300;DHT22;13241;51.208;4.432;2023-04-03T08:37:39;7.40;99.90
25300;DHT22;13241;51.208;4.432;2023-04-03T08:40:12;7.60;99.90
25300;DHT22;13241;51.208;4.432;2023-04-03T08:45:28;7.80;99.90
25300;DHT22;13241;51.208;4.432;2023-04-03T08:50:35;8.30;99.90
25300;DHT22;13241;51.208;4.432;2023-04-03T08:53:03;8.30;99.90
25300;DHT22;13241;51.208;4.432;2023-04-03T08:55:37;8.20;99.90
25300;DHT22;13241;51.208;4.432;2023-04-03T08:58:16;8.40;99.90
25300;DHT22;13241;51.208;4.432;2023-04-03T09:01:00;8.60;99.90
25300;DHT22;13241;51.208;4.432;2023-04-03T09:03:36;8.80;99.90
25300;DHT22;13241;51.208;4.432;2023-04-03T09:06:23;8.70;99.90
25300;DHT22;13241;51.208;4.432;2023-04-03T09:11:25;8.90;99.90
25300;DHT22;13241;51.208;4.432;2023-04-03T09:14:21;8.90;99.90
25300;DHT22;13241;51.208;4.432;2023-04-03T09:16:56;9.00;99.90
25300;DHT22;13241;51.208;4.432;2023-04-03T09:22:43;9.30;99.90
25300;DHT22;13241;51.208;4.432;2023-04-03T09:25:24;9.30;99.90
25300;DHT22;13241;51.208;4.432;2023-04-03T09:27:53;9.10;99.90
25300;DHT22;13241;51.208;4.432;2023-04-03T09:30:25;9.10;99.90
25300;DHT22;13241;51.208;4.432;2023-04-03T09:32:54;9.30;99.90
25300;DHT22;13241;51.208;4.432;2023-04-03T09:35:28;9.40;99.90
25300;DHT22;13241;51.208;4.432;2023-04-03T09:40:51;9.60;99.90
25300;DHT22;13241;51.208;4.432;2023-04-03T09:43:33;9.60;99.90
25300;DHT22;13241;51.208;4.432;2023-04-03T09:46:26;9.30;99.90
25300;DHT22;13241;51.208;4.432;2023-04-03T09:49:00;9.40;99.90
25300;DHT22;13241;51.208;4.432;2023-04-03T09:51:35;9.70;99.90
25300;DHT22;13241;51.208;4.432;2023-04-03T09:54:32;9.60;99.90
25300;DHT22;13241;51.208;4.432;2023-04-03T09:57:07;9.70;99.90
25300;DHT22;13241;51.208;4.432;2023-04-03T09:59:34;9.90;99.90
25300;DHT22;13241;51.208;4.432;2023-04-03T10:02:28;10.00;99.90
25300;DHT22;13241;51.208;4.432;2023-04-03T10:04:58;9.90;99.90
25300;DHT22;13241;51.208;4.432;2023-04-03T10:07:35;9.80;99.90
25300;DHT22;13241;51.208;4.432;2023-04-03T10:10:21;10.00;99.90
25300;DHT22;13241;51.208;4.432;2023-04-03T10:13:13;10.20;99.90
25300;DHT22;13241;51.208;4.432;2023-04-03T10:16:11;10.30;99.90
25300;DHT22;13241;51.208;4.432;2023-04-03T10:18:44;10.10;99.90
25300;DHT22;13241;51.208;4.432;2023-04-03T10:21:45;10.40;99.90
25300;DHT22;13241;51.208;4.432;2023-04-03T10:24:14;10.50;99.90
25300;DHT22;13241;51.208;4.432;2023-04-03T10:29:39;10.30;99.90
25300;DHT22;13241;51.208;4.432;2023-04-03T10:35:12;10.30;99.90
25300;DHT22;13241;51.208;4.432;2023-04-03T10:40:59;10.60;99.90
25300;DHT22;13241;51.208;4.432;2023-04-03T10:46:07;10.80;99.90
25300;DHT22;13241;51.208;4.432;2023-04-03T11:01:49;10.50;99.90
25300;DHT22;13241;51.208;4.432;2023-04-03T11:04:19;10.50;99.90
25300;DHT22;13241;51.208;4.432;2023-04-03T11:07:01;10.50;99.90
25300;DHT22;13241;51.208;4.432;2023-04-03T11:09:41;10.70;99.90
25300;DHT22;13241;51.208;4.432;2023-04-03T11:12:40;10.90;99.90
25300;DHT22;13241;51.208;4.432;2023-04-03T11:15:14;10.80;99.90
25300;DHT22;13241;51.208;4.432;2023-04-03T11:17:47;10.50;99.90
25300;DHT22;13241;51.208;4.432;2023-04-03T11:20:23;10.40;99.90
25300;DHT22;13241;51.208;4.432;2023-04-03T11:23:00;10.30;99.90
25300;DHT22;13241;51.208;4.432;2023-04-03T11:25:32;10.50;99.90
25300;DHT22;13241;51.208;4.432;2023-04-03T11:28:05;10.60;99.90
25300;DHT22;13241;51.208;4.432;2023-04-03T11:33:55;10.60;99.90
25300;DHT22;13241;51.208;4.432;2023-04-03T11:36:28;10.70;99.90
25300;DHT22;13241;51.208;4.432;2023-04-03T11:39:19;10.60;99.90
25300;DHT22;13241;51.208;4.432;2023-04-03T11:41:48;10.60;99.90
25300;DHT22;13241;51.208;4.432;2023-04-03T11:44:37;10.60;99.00
25300;DHT22;13241;51.208;4.432;2023-04-03T11:47:06;10.50;98.20
25300;DHT22;13241;51.208;4.432;2023-04-03T11:49:55;10.50;98.10
25300;DHT22;13241;51.208;4.432;2023-04-03T12:16:24;11.00;95.50
25300;DHT22;13241;51.208;4.432;2023-04-03T12:34:55;11.00;94.60
25300;DHT22;13241;51.208;4.432;2023-04-03T12:42:42;11.00;93.50
25300;DHT22;13241;51.208;4.432;2023-04-03T12:47:42;11.00;92.50
25300;DHT22;13241;51.208;4.432;2023-04-03T12:50:38;11.10;93.00
25300;DHT22;13241;51.208;4.432;2023-04-03T12:53:16;11.10;93.30
25300;DHT22;13241;51.208;4.432;2023-04-03T12:55:45;11.30;93.20
25300;DHT22;13241;51.208;4.432;2023-04-03T12:58:24;11.30;92.90
25300;DHT22;13241;51.208;4.432;2023-04-03T13:01:03;11.30;93.70
25300;DHT22;13241;51.208;4.432;2023-04-03T13:03:31;11.40;92.90
25300;DHT22;13241;51.208;4.432;2023-04-03T13:06:01;11.30;92.90
25300;DHT22;13241;51.208;4.432;2023-04-03T13:08:30;11.30;92.10
25300;DHT22;13241;51.208;4.432;2023-04-03T13:11:08;11.40;92.30
25300;DHT22;13241;51.208;4.432;2023-04-03T13:13:37;11.40;92.30
25300;DHT22;13241;51.208;4.432;2023-04-03T13:16:10;11.30;91.60
25300;DHT22;13241;51.208;4.432;2023-04-03T13:18:38;11.40;92.30
25300;DHT22;13241;51.208;4.432;2023-04-03T13:21:08;11.40;93.00
25300;DHT22;13241;51.208;4.432;2023-04-03T13:23:43;11.50;92.20
25300;DHT22;13241;51.208;4.432;2023-04-03T13:26:12;11.60;92.10
25300;DHT22;13241;51.208;4.432;2023-04-03T13:28:42;11.50;92.30
25300;DHT22;13241;51.208;4.432;2023-04-03T13:31:30;11.70;92.60
25300;DHT22;13241;51.208;4.432;2023-04-03T13:34:18;11.80;93.40
25300;DHT22;13241;51.208;4.432;2023-04-03T13:36:55;11.90;92.80
25300;DHT22;13241;51.208;4.432;2023-04-03T13:39:26;11.70;91.80
25300;DHT22;13241;51.208;4.432;2023-04-03T13:41:57;11.60;91.40
25300;DHT22;13241;51.208;4.432;2023-04-03T13:44:35;11.50;92.10
25300;DHT22;13241;51.208;4.432;2023-04-03T13:49:44;11.60;91.10
25300;DHT22;13241;51.208;4.432;2023-04-03T13:52:38;11.60;92.20
25300;DHT22;13241;51.208;4.432;2023-04-03T13:55:19;11.50;90.50
25300;DHT22;13241;51.208;4.432;2023-04-03T14:00:45;11.80;91.90
25300;DHT22;13241;51.208;4.432;2023-04-03T14:05:50;12.00;92.10
25300;DHT22;13241;51.208;4.432;2023-04-03T14:08:18;11.90;91.10
25300;DHT22;13241;51.208;4.432;2023-04-03T14:10:58;11.70;91.80
25300;DHT22;13241;51.208;4.432;2023-04-03T14:13:25;11.90;92.00
25300;DHT22;13241;51.208;4.432;2023-04-03T14:15:52;12.00;93.00
25300;DHT22;13241;51.208;4.432;2023-04-03T14:18:22;12.20;91.20
25300;DHT22;13241;51.208;4.432;2023-04-03T14:20:49;12.30;92.10
25300;DHT22;13241;51.208;4.432;2023-04-03T14:23:16;12.40;92.30
25300;DHT22;13241;51.208;4.432;2023-04-03T14:25:43;12.30;90.50
25300;DHT22;13241;51.208;4.432;2023-04-03T14:28:28;12.20;90.40
25300;DHT22;13241;51.208;4.432;2023-04-03T14:30:55;12.00;88.90
25300;DHT22;13241;51.208;4.432;2023-04-03T14:33:22;11.90;88.80
25300;DHT22;13241;51.208;4.432;2023-04-03T14:35:49;11.90;88.40
25300;DHT22;13241;51.208;4.432;2023-04-03T14:38:28;11.90;89.60
25300;DHT22;13241;51.208;4.432;2023-04-03T14:40:55;11.90;90.20
25300;DHT22;13241;51.208;4.432;2023-04-03T14:43:32;12.00;89.80
25300;DHT22;13241;51.208;4.432;2023-04-03T14:45:59;12.10;89.70
25300;DHT22;13241;51.208;4.432;2023-04-03T14:48:27;12.00;89.80
25300;DHT22;13241;51.208;4.432;2023-04-03T14:50:54;12.10;88.90
25300;DHT22;13241;51.208;4.432;2023-04-03T14:53:32;12.00;89.90
25300;DHT22;13241;51.208;4.432;2023-04-03T14:56:23;11.80;88.50
25300;DHT22;13241;51.208;4.432;2023-04-03T14:58:56;11.80;89.70
25300;DHT22;13241;51.208;4.432;2023-04-03T15:01:24;11.70;88.60
25300;DHT22;13241;51.208;4.432;2023-04-03T15:03:51;11.70;88.80
25300;DHT22;13241;51.208;4.432;2023-04-03T15:06:18;11.70;90.30
25300;DHT22;13241;51.208;4.432;2023-04-03T15:08:46;11.70;90.00
25300;DHT22;13241;51.208;4.432;2023-04-03T15:11:14;11.60;90.00
25300;DHT22;13241;51.208;4.432;2023-04-03T15:13:41;11.70;90.00
25300;DHT22;13241;51.208;4.432;2023-04-03T15:16:17;11.70;88.90
25300;DHT22;13241;51.208;4.432;2023-04-03T15:18:45;11.60;87.90
25300;DHT22;13241;51.208;4.432;2023-04-03T15:21:13;11.60;89.10
25300;DHT22;13241;51.208;4.432;2023-04-03T15:23:41;11.40;88.30
25300;DHT22;13241;51.208;4.432;2023-04-03T15:26:10;11.40;87.40
25300;DHT22;13241;51.208;4.432;2023-04-03T15:28:39;11.30;89.60
25300;DHT22;13241;51.208;4.432;2023-04-03T15:31:08;11.30;88.80
25300;DHT22;13241;51.208;4.432;2023-04-03T15:33:35;11.40;89.00
25300;DHT22;13241;51.208;4.432;2023-04-03T15:36:03;11.30;88.70
25300;DHT22;13241;51.208;4.432;2023-04-03T15:38:37;11.30;90.00
25300;DHT22;13241;51.208;4.432;2023-04-03T15:41:04;11.20;90.20
25300;DHT22;13241;51.208;4.432;2023-04-03T15:43:32;11.00;90.40
25300;DHT22;13241;51.208;4.432;2023-04-03T15:46:00;11.10;90.60
25300;DHT22;13241;51.208;4.432;2023-04-03T15:48:28;11.00;90.80
25300;DHT22;13241;51.208;4.432;2023-04-03T15:50:55;11.00;90.70
25300;DHT22;13241;51.208;4.432;2023-04-03T15:53:24;10.90;90.80
25300;DHT22;13241;51.208;4.432;2023-04-03T15:55:51;10.80;90.70
25300;DHT22;13241;51.208;4.432;2023-04-03T15:58:18;10.80;91.20
25300;DHT22;13241;51.208;4.432;2023-04-03T16:00:45;10.80;91.20
25300;DHT22;13241;51.208;4.432;2023-04-03T16:03:16;10.90;91.10
25300;DHT22;13241;51.208;4.432;2023-04-03T16:05:43;10.90;91.00
25300;DHT22;13241;51.208;4.432;2023-04-03T16:08:11;10.70;91.10
25300;DHT22;13241;51.208;4.432;2023-04-03T16:10:38;10.60;91.40
25300;DHT22;13241;51.208;4.432;2023-04-03T16:13:06;10.70;91.20
25300;DHT22;13241;51.208;4.432;2023-04-03T16:15:33;10.60;91.60
25300;DHT22;13241;51.208;4.432;2023-04-03T16:18:01;10.60;92.10
25300;DHT22;13241;51.208;4.432;2023-04-03T16:20:29;10.60;91.30
25300;DHT22;13241;51.208;4.432;2023-04-03T16:22:58;10.60;91.70
25300;DHT22;13241;51.208;4.432;2023-04-03T16:25:25;10.60;91.90
25300;DHT22;13241;51.208;4.432;2023-04-03T16:27:53;10.60;92.60
25300;DHT22;13241;51.208;4.432;2023-04-03T16:30:20;10.60;93.40
25300;DHT22;13241;51.208;4.432;2023-04-03T16:32:47;10.50;93.60
25300;DHT22;13241;51.208;4.432;2023-04-03T16:35:14;10.50;94.00
25300;DHT22;13241;51.208;4.432;2023-04-03T16:37:41;10.30;94.20
25300;DHT22;13241;51.208;4.432;2023-04-03T16:40:08;10.30;94.40
25300;DHT22;13241;51.208;4.432;2023-04-03T16:42:35;10.50;94.20
25300;DHT22;13241;51.208;4.432;2023-04-03T16:45:05;10.30;93.90
25300;DHT22;13241;51.208;4.432;2023-04-03T16:47:32;10.30;93.80
25300;DHT22;13241;51.208;4.432;2023-04-03T16:49:59;10.20;93.80
25300;DHT22;13241;51.208;4.432;2023-04-03T16:52:27;10.10;94.00
25300;DHT22;13241;51.208;4.432;2023-04-03T16:54:54;10.10;94.60
25300;DHT22;13241;51.208;4.432;2023-04-03T16:57:23;10.10;95.40
25300;DHT22;13241;51.208;4.432;2023-04-03T17:02:20;10.10;95.50
25300;DHT22;13241;51.208;4.432;2023-04-03T17:04:47;10.10;95.60
25300;DHT22;13241;51.208;4.432;2023-04-03T17:07:19;10.10;95.70
25300;DHT22;13241;51.208;4.432;2023-04-03T17:09:46;10.00;95.20
25300;DHT22;13241;51.208;4.432;2023-04-03T17:12:13;9.90;95.30
25300;DHT22;13241;51.208;4.432;2023-04-03T17:14:41;9.90;94.90
25300;DHT22;13241;51.208;4.432;2023-04-03T17:17:08;9.80;95.30
25300;DHT22;13241;51.208;4.432;2023-04-03T17:19:36;9.80;95.40
25300;DHT22;13241;51.208;4.432;2023-04-03T17:22:04;9.80;95.50
25300;DHT22;13241;51.208;4.432;2023-04-03T17:24:31;9.70;95.70
25300;DHT22;13241;51.208;4.432;2023-04-03T17:26:58;9.70;96.00
25300;DHT22;13241;51.208;4.432;2023-04-03T17:29:25;9.70;96.40
25300;DHT22;13241;51.208;4.432;2023-04-03T17:31:52;9.60;97.10
25300;DHT22;13241;51.208;4.432;2023-04-03T17:34:19;9.60;96.60
25300;DHT22;13241;51.208;4.432;2023-04-03T17:36:47;9.50;96.70
25300;DHT22;13241;51.208;4.432;2023-04-03T17:39:14;9.50;96.60
25300;DHT22;13241;51.208;4.432;2023-04-03T17:41:41;9.50;96.60
25300;DHT22;13241;51.208;4.432;2023-04-03T17:44:09;9.50;97.10
25300;DHT22;13241;51.208;4.432;2023-04-03T17:46:36;9.50;97.00
25300;DHT22;13241;51.208;4.432;2023-04-03T17:49:03;9.50;97.40
25300;DHT22;13241;51.208;4.432;2023-04-03T17:51:31;9.40;97.70